sensor_id;sensor_type;location;lat;lon;timestamp;P1;durP1;ratioP1;P2;durP2;ratioP2
54883;SDS011;40776;52.880;6.016;2024-03-02T00:01:10;2.13;;;1.15;;
54883;SDS011;40776;52.880;6.016;2024-03-02T00:03:37;2.03;;;1.00;;
54883;SDS011;40776;52.880;6.016;2024-03-02T00:06:03;2.80;;;0.95;;
54883;SDS011;40776;52.880;6.016;2024-03-02T00:08:29;3.05;;;1.10;;
54883;SDS011;40776;52.880;6.016;2024-03-02T00:10:57;2.75;;;1.20;;
54883;SDS011;40776;52.880;6.016;2024-03-02T00:13:23;1.60;;;0.93;;
54883;SDS011;40776;52.880;6.016;2024-03-02T00:15:53;2.33;;;1.10;;
54883;SDS011;40776;52.880;6.016;2024-03-02T00:18:27;2.72;;;1.10;;
54883;SDS011;40776;52.880;6.016;2024-03-02T00:20:56;3.22;;;1.48;;
54883;SDS011;40776;52.880;6.016;2024-03-02T00:23:22;2.05;;;1.13;;
54883;SDS011;40776;52.880;6.016;2024-03-02T00:25:50;2.83;;;1.35;;
54883;SDS011;40776;52.880;6.016;2024-03-02T00:28:25;2.60;;;1.10;;
54883;SDS011;40776;52.880;6.016;2024-03-02T00:33:26;1.52;;;0.90;;
54883;SDS011;40776;52.880;6.016;2024-03-02T00:35:53;2.65;;;1.20;;
54883;SDS011;40776;52.880;6.016;2024-03-02T00:38:22;3.08;;;2.00;;
54883;SDS011;40776;52.880;6.016;2024-03-02T00:40:49;1.90;;;1.30;;
54883;SDS011;40776;52.880;6.016;2024-03-02T00:45:44;2.00;;;1.00;;
54883;SDS011;40776;52.880;6.016;2024-03-02T00:48:10;2.67;;;1.10;;
54883;SDS011;40776;52.880;6.016;2024-03-02T00:50:36;1.98;;;1.20;;
54883;SDS011;40776;52.880;6.016;2024-03-02T00:53:02;1.92;;;0.98;;
54883;SDS011;40776;52.880;6.016;2024-03-02T00:55:28;2.20;;;1.20;;
54883;SDS011;40776;52.880;6.016;2024-03-02T00:57:54;2.85;;;1.20;;
54883;SDS011;40776;52.880;6.016;2024-03-02T01:00:20;2.35;;;1.17;;
54883;SDS011;40776;52.880;6.016;2024-03-02T01:02:46;2.00;;;1.08;;
54883;SDS011;40776;52.880;6.016;2024-03-02T01:05:13;1.83;;;1.02;;
54883;SDS011;40776;52.880;6.016;2024-03-02T01:07:39;1.70;;;1.00;;
54883;SDS011;40776;52.880;6.016;2024-03-02T01:10:05;2.13;;;1.20;;
54883;SDS011;40776;52.880;6.016;2024-03-02T01:12:31;3.05;;;1.13;;
54883;SDS011;40776;52.880;6.016;2024-03-02T01:14:57;2.10;;;1.05;;
54883;SDS011;40776;52.880;6.016;2024-03-02T01:17:23;2.58;;;1.27;;
54883;SDS011;40776;52.880;6.016;2024-03-02T01:19:49;4.03;;;1.17;;
54883;SDS011;40776;52.880;6.016;2024-03-02T01:24:51;1.65;;;1.00;;
54883;SDS011;40776;52.880;6.016;2024-03-02T01:27:17;3.17;;;1.15;;
54883;SDS011;40776;52.880;6.016;2024-03-02T01:29:43;2.47;;;1.02;;
54883;SDS011;40776;52.880;6.016;2024-03-02T01:32:09;2.30;;;1.10;;
54883;SDS011;40776;52.880;6.016;2024-03-02T01:34:35;1.92;;;1.05;;
54883;SDS011;40776;52.880;6.016;2024-03-02T01:37:01;2.47;;;0.90;;
54883;SDS011;40776;52.880;6.016;2024-03-02T01:39:28;1.73;;;0.85;;
54883;SDS011;40776;52.880;6.016;2024-03-02T01:41:54;2.15;;;1.15;;
54883;SDS011;40776;52.880;6.016;2024-03-02T01:44:20;1.88;;;1.05;;
54883;SDS011;40776;52.880;6.016;2024-03-02T01:46:46;2.67;;;1.15;;
54883;SDS011;40776;52.880;6.016;2024-03-02T01:49:12;3.28;;;1.20;;
54883;SDS011;40776;52.880;6.016;2024-03-02T01:51:38;2.20;;;1.10;;
54883;SDS011;40776;52.880;6.016;2024-03-02T01:54:04;1.98;;;1.13;;
54883;SDS011;40776;52.880;6.016;2024-03-02T01:56:30;3.00;;;1.10;;
54883;SDS011;40776;52.880;6.016;2024-03-02T01:58:56;3.95;;;1.23;;
54883;SDS011;40776;52.880;6.016;2024-03-02T02:01:22;2.05;;;1.10;;
54883;SDS011;40776;52.880;6.016;2024-03-02T02:03:48;2.28;;;1.23;;
54883;SDS011;40776;52.880;6.016;2024-03-02T02:06:14;2.33;;;1.08;;
54883;SDS011;40776;52.880;6.016;2024-03-02T02:08:40;2.00;;;1.23;;
54883;SDS011;40776;52.880;6.016;2024-03-02T02:11:06;1.83;;;0.95;;
54883;SDS011;40776;52.880;6.016;2024-03-02T02:13:32;2.35;;;1.10;;
54883;SDS011;40776;52.880;6.016;2024-03-02T02:16:05;2.78;;;1.20;;
54883;SDS011;40776;52.880;6.016;2024-03-02T02:18:32;1.30;;;0.77;;
54883;SDS011;40776;52.880;6.016;2024-03-02T02:20:58;1.88;;;1.10;;
54883;SDS011;40776;52.880;6.016;2024-03-02T02:23:24;2.17;;;1.13;;
54883;SDS011;40776;52.880;6.016;2024-03-02T02:25:50;2.05;;;1.27;;
54883;SDS011;40776;52.880;6.016;2024-03-02T02:28:16;2.47;;;1.30;;
54883;SDS011;40776;52.880;6.016;2024-03-02T02:30:42;1.70;;;0.98;;
54883;SDS011;40776;52.880;6.016;2024-03-02T02:33:08;2.20;;;1.20;;
54883;SDS011;40776;52.880;6.016;2024-03-02T02:35:34;1.80;;;1.00;;
54883;SDS011;40776;52.880;6.016;2024-03-02T02:38:01;1.73;;;1.00;;
54883;SDS011;40776;52.880;6.016;2024-03-02T02:40:28;2.28;;;1.20;;
54883;SDS011;40776;52.880;6.016;2024-03-02T02:42:57;1.88;;;1.05;;
54883;SDS011;40776;52.880;6.016;2024-03-02T02:45:24;3.00;;;0.90;;
54883;SDS011;40776;52.880;6.016;2024-03-02T02:47:50;2.17;;;1.20;;
54883;SDS011;40776;52.880;6.016;2024-03-02T02:50:16;2.00;;;1.10;;
54883;SDS011;40776;52.880;6.016;2024-03-02T02:52:42;1.95;;;1.25;;
54883;SDS011;40776;52.880;6.016;2024-03-02T02:55:09;1.55;;;0.93;;
54883;SDS011;40776;52.880;6.016;2024-03-02T02:57:38;1.92;;;0.93;;
54883;SDS011;40776;52.880;6.016;2024-03-02T03:00:05;1.70;;;0.95;;
54883;SDS011;40776;52.880;6.016;2024-03-02T03:02:35;2.00;;;1.00;;
54883;SDS011;40776;52.880;6.016;2024-03-02T03:05:01;1.92;;;1.00;;
54883;SDS011;40776;52.880;6.016;2024-03-02T03:07:27;2.20;;;1.02;;
54883;SDS011;40776;52.880;6.016;2024-03-02T03:09:53;1.95;;;0.82;;
54883;SDS011;40776;52.880;6.016;2024-03-02T03:12:19;1.75;;;0.98;;
54883;SDS011;40776;52.880;6.016;2024-03-02T03:14:45;1.67;;;0.90;;
54883;SDS011;40776;52.880;6.016;2024-03-02T03:17:11;1.67;;;0.88;;
54883;SDS011;40776;52.880;6.016;2024-03-02T03:19:38;1.98;;;0.95;;
54883;SDS011;40776;52.880;6.016;2024-03-02T03:22:04;2.20;;;0.80;;
54883;SDS011;40776;52.880;6.016;2024-03-02T03:24:30;1.98;;;0.80;;
54883;SDS011;40776;52.880;6.016;2024-03-02T03:26:58;2.35;;;1.10;;
54883;SDS011;40776;52.880;6.016;2024-03-02T03:29:24;1.67;;;0.95;;
54883;SDS011;40776;52.880;6.016;2024-03-02T03:31:50;1.70;;;1.02;;
54883;SDS011;40776;52.880;6.016;2024-03-02T03:34:16;2.03;;;0.98;;
54883;SDS011;40776;52.880;6.016;2024-03-02T03:36:42;2.38;;;0.90;;
54883;SDS011;40776;52.880;6.016;2024-03-02T03:39:08;2.13;;;1.00;;
54883;SDS011;40776;52.880;6.016;2024-03-02T03:41:34;2.40;;;0.90;;
54883;SDS011;40776;52.880;6.016;2024-03-02T03:44:00;1.73;;;0.80;;
54883;SDS011;40776;52.880;6.016;2024-03-02T03:46:26;2.22;;;1.00;;
54883;SDS011;40776;52.880;6.016;2024-03-02T03:48:52;1.63;;;0.80;;
54883;SDS011;40776;52.880;6.016;2024-03-02T03:51:18;1.95;;;0.98;;
54883;SDS011;40776;52.880;6.016;2024-03-02T03:53:44;2.22;;;1.10;;
54883;SDS011;40776;52.880;6.016;2024-03-02T03:56:10;1.98;;;0.82;;
54883;SDS011;40776;52.880;6.016;2024-03-02T03:58:38;2.45;;;0.90;;
54883;SDS011;40776;52.880;6.016;2024-03-02T04:01:04;2.70;;;1.00;;
54883;SDS011;40776;52.880;6.016;2024-03-02T04:03:30;3.15;;;1.17;;
54883;SDS011;40776;52.880;6.016;2024-03-02T04:05:56;1.58;;;0.70;;
54883;SDS011;40776;52.880;6.016;2024-03-02T04:08:22;1.67;;;0.82;;
54883;SDS011;40776;52.880;6.016;2024-03-02T04:10:48;1.60;;;0.80;;
54883;SDS011;40776;52.880;6.016;2024-03-02T04:13:15;1.15;;;0.70;;
54883;SDS011;40776;52.880;6.016;2024-03-02T04:15:41;1.50;;;0.80;;
54883;SDS011;40776;52.880;6.016;2024-03-02T04:18:07;1.40;;;0.90;;
54883;SDS011;40776;52.880;6.016;2024-03-02T04:20:33;1.38;;;0.80;;
54883;SDS011;40776;52.880;6.016;2024-03-02T04:22:59;1.45;;;0.75;;
54883;SDS011;40776;52.880;6.016;2024-03-02T04:25:25;1.70;;;0.80;;
54883;SDS011;40776;52.880;6.016;2024-03-02T04:27:51;1.77;;;0.90;;
54883;SDS011;40776;52.880;6.016;2024-03-02T04:30:17;1.30;;;0.50;;
54883;SDS011;40776;52.880;6.016;2024-03-02T04:32:43;2.42;;;0.70;;
54883;SDS011;40776;52.880;6.016;2024-03-02T04:35:11;1.25;;;0.70;;
54883;SDS011;40776;52.880;6.016;2024-03-02T04:37:38;2.03;;;0.80;;
54883;SDS011;40776;52.880;6.016;2024-03-02T04:40:04;1.38;;;0.80;;
54883;SDS011;40776;52.880;6.016;2024-03-02T04:42:33;1.10;;;0.60;;
54883;SDS011;40776;52.880;6.016;2024-03-02T04:44:59;0.80;;;0.50;;
54883;SDS011;40776;52.880;6.016;2024-03-02T04:47:25;3.25;;;1.15;;
54883;SDS011;40776;52.880;6.016;2024-03-02T04:49:51;1.58;;;0.80;;
54883;SDS011;40776;52.880;6.016;2024-03-02T04:52:18;1.83;;;0.70;;
54883;SDS011;40776;52.880;6.016;2024-03-02T04:54:44;1.70;;;0.70;;
54883;SDS011;40776;52.880;6.016;2024-03-02T04:57:28;1.20;;;0.60;;
54883;SDS011;40776;52.880;6.016;2024-03-02T04:59:54;1.65;;;0.60;;
54883;SDS011;40776;52.880;6.016;2024-03-02T05:02:20;0.75;;;0.47;;
54883;SDS011;40776;52.880;6.016;2024-03-02T05:04:46;1.25;;;0.60;;
54883;SDS011;40776;52.880;6.016;2024-03-02T05:07:13;1.40;;;0.60;;
54883;SDS011;40776;52.880;6.016;2024-03-02T05:09:40;1.08;;;0.60;;
54883;SDS011;40776;52.880;6.016;2024-03-02T05:12:06;1.45;;;0.70;;
54883;SDS011;40776;52.880;6.016;2024-03-02T05:14:35;1.15;;;0.50;;
54883;SDS011;40776;52.880;6.016;2024-03-02T05:17:01;1.83;;;0.70;;
54883;SDS011;40776;52.880;6.016;2024-03-02T05:19:27;0.85;;;0.70;;
54883;SDS011;40776;52.880;6.016;2024-03-02T05:21:53;0.93;;;0.55;;
54883;SDS011;40776;52.880;6.016;2024-03-02T05:24:19;1.13;;;0.60;;
54883;SDS011;40776;52.880;6.016;2024-03-02T05:26:45;0.93;;;0.50;;
54883;SDS011;40776;52.880;6.016;2024-03-02T05:29:11;0.90;;;0.50;;
54883;SDS011;40776;52.880;6.016;2024-03-02T05:31:37;1.15;;;0.57;;
54883;SDS011;40776;52.880;6.016;2024-03-02T05:34:03;1.00;;;0.50;;
54883;SDS011;40776;52.880;6.016;2024-03-02T05:36:30;1.38;;;0.60;;
54883;SDS011;40776;52.880;6.016;2024-03-02T05:38:56;0.88;;;0.60;;
54883;SDS011;40776;52.880;6.016;2024-03-02T05:41:22;1.33;;;0.43;;
54883;SDS011;40776;52.880;6.016;2024-03-02T05:43:48;1.42;;;0.60;;
54883;SDS011;40776;52.880;6.016;2024-03-02T05:46:14;1.33;;;0.60;;
54883;SDS011;40776;52.880;6.016;2024-03-02T05:48:40;1.17;;;0.60;;
54883;SDS011;40776;52.880;6.016;2024-03-02T05:51:06;0.85;;;0.52;;
54883;SDS011;40776;52.880;6.016;2024-03-02T05:53:32;0.60;;;0.50;;
54883;SDS011;40776;52.880;6.016;2024-03-02T05:55:59;1.35;;;0.43;;
54883;SDS011;40776;52.880;6.016;2024-03-02T05:58:25;0.95;;;0.40;;
54883;SDS011;40776;52.880;6.016;2024-03-02T06:01:02;1.25;;;0.50;;
54883;SDS011;40776;52.880;6.016;2024-03-02T06:03:29;0.70;;;0.43;;
54883;SDS011;40776;52.880;6.016;2024-03-02T06:05:55;2.00;;;0.40;;
54883;SDS011;40776;52.880;6.016;2024-03-02T06:08:21;1.90;;;0.85;;
54883;SDS011;40776;52.880;6.016;2024-03-02T06:10:47;0.75;;;0.57;;
54883;SDS011;40776;52.880;6.016;2024-03-02T06:13:13;0.70;;;0.40;;
54883;SDS011;40776;52.880;6.016;2024-03-02T06:15:40;0.80;;;0.55;;
54883;SDS011;40776;52.880;6.016;2024-03-02T06:18:06;0.77;;;0.50;;
54883;SDS011;40776;52.880;6.016;2024-03-02T06:20:33;0.50;;;0.40;;
54883;SDS011;40776;52.880;6.016;2024-03-02T06:22:59;0.60;;;0.40;;
54883;SDS011;40776;52.880;6.016;2024-03-02T06:25:25;0.50;;;0.38;;
54883;SDS011;40776;52.880;6.016;2024-03-02T06:27:51;0.70;;;0.38;;
54883;SDS011;40776;52.880;6.016;2024-03-02T06:30:17;1.58;;;0.40;;
54883;SDS011;40776;52.880;6.016;2024-03-02T06:32:46;1.13;;;0.40;;
54883;SDS011;40776;52.880;6.016;2024-03-02T06:35:12;0.88;;;0.40;;
54883;SDS011;40776;52.880;6.016;2024-03-02T06:37:39;1.85;;;0.40;;
54883;SDS011;40776;52.880;6.016;2024-03-02T06:40:05;1.00;;;0.50;;
54883;SDS011;40776;52.880;6.016;2024-03-02T06:42:32;1.40;;;0.40;;
54883;SDS011;40776;52.880;6.016;2024-03-02T06:45:02;0.85;;;0.30;;
54883;SDS011;40776;52.880;6.016;2024-03-02T06:47:28;0.70;;;0.45;;
54883;SDS011;40776;52.880;6.016;2024-03-02T06:49:55;0.98;;;0.50;;
54883;SDS011;40776;52.880;6.016;2024-03-02T06:52:22;0.80;;;0.47;;
54883;SDS011;40776;52.880;6.016;2024-03-02T06:54:48;0.73;;;0.32;;
54883;SDS011;40776;52.880;6.016;2024-03-02T06:57:14;0.40;;;0.30;;
54883;SDS011;40776;52.880;6.016;2024-03-02T06:59:42;2.05;;;0.47;;
54883;SDS011;40776;52.880;6.016;2024-03-02T07:02:08;2.08;;;0.60;;
54883;SDS011;40776;52.880;6.016;2024-03-02T07:04:34;1.50;;;0.40;;
54883;SDS011;40776;52.880;6.016;2024-03-02T07:07:00;1.10;;;0.40;;
54883;SDS011;40776;52.880;6.016;2024-03-02T07:09:26;0.32;;;0.28;;
54883;SDS011;40776;52.880;6.016;2024-03-02T07:11:52;1.17;;;0.30;;
54883;SDS011;40776;52.880;6.016;2024-03-02T07:14:18;1.98;;;0.40;;
54883;SDS011;40776;52.880;6.016;2024-03-02T07:16:44;0.47;;;0.32;;
54883;SDS011;40776;52.880;6.016;2024-03-02T07:19:10;0.40;;;0.20;;
54883;SDS011;40776;52.880;6.016;2024-03-02T07:21:36;4.10;;;0.50;;
54883;SDS011;40776;52.880;6.016;2024-03-02T07:24:02;1.80;;;0.40;;
54883;SDS011;40776;52.880;6.016;2024-03-02T07:26:28;0.55;;;0.45;;
54883;SDS011;40776;52.880;6.016;2024-03-02T07:28:56;0.93;;;0.40;;
54883;SDS011;40776;52.880;6.016;2024-03-02T07:31:22;0.73;;;0.30;;
54883;SDS011;40776;52.880;6.016;2024-03-02T07:33:48;0.50;;;0.30;;
54883;SDS011;40776;52.880;6.016;2024-03-02T07:36:15;1.65;;;0.40;;
54883;SDS011;40776;52.880;6.016;2024-03-02T07:38:41;0.98;;;0.40;;
54883;SDS011;40776;52.880;6.016;2024-03-02T07:41:09;0.88;;;0.40;;
54883;SDS011;40776;52.880;6.016;2024-03-02T07:43:36;0.38;;;0.38;;
54883;SDS011;40776;52.880;6.016;2024-03-02T07:46:02;0.77;;;0.43;;
54883;SDS011;40776;52.880;6.016;2024-03-02T07:48:28;1.10;;;0.40;;
54883;SDS011;40776;52.880;6.016;2024-03-02T07:50:55;1.10;;;0.40;;
54883;SDS011;40776;52.880;6.016;2024-03-02T07:53:21;2.83;;;0.80;;
54883;SDS011;40776;52.880;6.016;2024-03-02T07:55:47;0.95;;;0.50;;
54883;SDS011;40776;52.880;6.016;2024-03-02T07:58:13;1.50;;;0.70;;
54883;SDS011;40776;52.880;6.016;2024-03-02T08:00:39;1.52;;;0.57;;
54883;SDS011;40776;52.880;6.016;2024-03-02T08:03:06;0.80;;;0.60;;
54883;SDS011;40776;52.880;6.016;2024-03-02T08:05:32;1.23;;;0.50;;
54883;SDS011;40776;52.880;6.016;2024-03-02T08:07:58;0.55;;;0.30;;
54883;SDS011;40776;52.880;6.016;2024-03-02T08:10:25;0.98;;;0.43;;
54883;SDS011;40776;52.880;6.016;2024-03-02T08:12:51;1.23;;;0.50;;
54883;SDS011;40776;52.880;6.016;2024-03-02T08:15:17;0.88;;;0.43;;
54883;SDS011;40776;52.880;6.016;2024-03-02T08:17:43;1.52;;;0.50;;
54883;SDS011;40776;52.880;6.016;2024-03-02T08:20:13;0.77;;;0.32;;
54883;SDS011;40776;52.880;6.016;2024-03-02T08:22:39;1.60;;;0.43;;
54883;SDS011;40776;52.880;6.016;2024-03-02T08:25:06;1.02;;;0.43;;
54883;SDS011;40776;52.880;6.016;2024-03-02T08:27:33;1.42;;;0.60;;
54883;SDS011;40776;52.880;6.016;2024-03-02T08:29:59;0.95;;;0.45;;
54883;SDS011;40776;52.880;6.016;2024-03-02T08:32:25;0.90;;;0.47;;
54883;SDS011;40776;52.880;6.016;2024-03-02T08:34:51;0.80;;;0.40;;
54883;SDS011;40776;52.880;6.016;2024-03-02T08:37:17;0.88;;;0.40;;
54883;SDS011;40776;52.880;6.016;2024-03-02T08:39:44;0.70;;;0.30;;
54883;SDS011;40776;52.880;6.016;2024-03-02T08:42:10;1.27;;;0.52;;
54883;SDS011;40776;52.880;6.016;2024-03-02T08:44:36;2.00;;;0.70;;
54883;SDS011;40776;52.880;6.016;2024-03-02T08:47:03;0.50;;;0.40;;
54883;SDS011;40776;52.880;6.016;2024-03-02T08:49:31;0.82;;;0.30;;
54883;SDS011;40776;52.880;6.016;2024-03-02T08:51:58;0.93;;;0.40;;
54883;SDS011;40776;52.880;6.016;2024-03-02T08:54:24;1.02;;;0.40;;
54883;SDS011;40776;52.880;6.016;2024-03-02T08:56:50;0.50;;;0.30;;
54883;SDS011;40776;52.880;6.016;2024-03-02T08:59:19;0.50;;;0.30;;
54883;SDS011;40776;52.880;6.016;2024-03-02T09:01:45;1.02;;;0.40;;
54883;SDS011;40776;52.880;6.016;2024-03-02T09:04:11;0.80;;;0.50;;
54883;SDS011;40776;52.880;6.016;2024-03-02T09:06:37;0.90;;;0.50;;
54883;SDS011;40776;52.880;6.016;2024-03-02T09:09:03;1.80;;;0.50;;
54883;SDS011;40776;52.880;6.016;2024-03-02T09:11:29;1.38;;;0.57;;
54883;SDS011;40776;52.880;6.016;2024-03-02T09:13:57;1.02;;;0.50;;
54883;SDS011;40776;52.880;6.016;2024-03-02T09:16:23;0.38;;;0.20;;
54883;SDS011;40776;52.880;6.016;2024-03-02T09:18:52;0.82;;;0.40;;
54883;SDS011;40776;52.880;6.016;2024-03-02T09:21:18;0.73;;;0.40;;
54883;SDS011;40776;52.880;6.016;2024-03-02T09:23:44;1.13;;;0.50;;
54883;SDS011;40776;52.880;6.016;2024-03-02T09:26:11;1.05;;;0.40;;
54883;SDS011;40776;52.880;6.016;2024-03-02T09:28:37;0.77;;;0.40;;
54883;SDS011;40776;52.880;6.016;2024-03-02T09:31:03;0.77;;;0.35;;
54883;SDS011;40776;52.880;6.016;2024-03-02T09:33:29;0.65;;;0.40;;
54883;SDS011;40776;52.880;6.016;2024-03-02T09:35:55;0.82;;;0.50;;
54883;SDS011;40776;52.880;6.016;2024-03-02T09:38:21;1.33;;;0.47;;
54883;SDS011;40776;52.880;6.016;2024-03-02T09:40:49;0.90;;;0.30;;
54883;SDS011;40776;52.880;6.016;2024-03-02T09:43:15;0.93;;;0.40;;
54883;SDS011;40776;52.880;6.016;2024-03-02T09:45:41;1.30;;;0.40;;
54883;SDS011;40776;52.880;6.016;2024-03-02T09:48:07;0.70;;;0.40;;
54883;SDS011;40776;52.880;6.016;2024-03-02T09:50:33;0.98;;;0.40;;
54883;SDS011;40776;52.880;6.016;2024-03-02T09:52:59;0.98;;;0.50;;
54883;SDS011;40776;52.880;6.016;2024-03-02T09:55:25;2.17;;;0.50;;
54883;SDS011;40776;52.880;6.016;2024-03-02T09:57:52;0.95;;;0.40;;
54883;SDS011;40776;52.880;6.016;2024-03-02T10:00:18;0.98;;;0.60;;
54883;SDS011;40776;52.880;6.016;2024-03-02T10:02:44;1.25;;;0.40;;
54883;SDS011;40776;52.880;6.016;2024-03-02T10:05:14;1.43;;;0.77;;
54883;SDS011;40776;52.880;6.016;2024-03-02T10:07:59;1.05;;;0.60;;
54883;SDS011;40776;52.880;6.016;2024-03-02T10:10:26;0.68;;;0.30;;
54883;SDS011;40776;52.880;6.016;2024-03-02T10:13:06;0.77;;;0.47;;
54883;SDS011;40776;52.880;6.016;2024-03-02T10:15:32;1.38;;;0.50;;
54883;SDS011;40776;52.880;6.016;2024-03-02T10:17:59;1.15;;;0.50;;
54883;SDS011;40776;52.880;6.016;2024-03-02T10:20:27;2.03;;;0.50;;
54883;SDS011;40776;52.880;6.016;2024-03-02T10:22:54;1.60;;;0.50;;
54883;SDS011;40776;52.880;6.016;2024-03-02T10:25:33;1.55;;;0.60;;
54883;SDS011;40776;52.880;6.016;2024-03-02T10:27:59;1.08;;;0.38;;
54883;SDS011;40776;52.880;6.016;2024-03-02T10:30:28;0.95;;;0.43;;
54883;SDS011;40776;52.880;6.016;2024-03-02T10:32:54;2.53;;;0.55;;
54883;SDS011;40776;52.880;6.016;2024-03-02T10:35:23;3.17;;;0.60;;
54883;SDS011;40776;52.880;6.016;2024-03-02T10:37:51;2.25;;;0.45;;
54883;SDS011;40776;52.880;6.016;2024-03-02T10:40:17;0.73;;;0.40;;
54883;SDS011;40776;52.880;6.016;2024-03-02T10:42:44;1.52;;;0.60;;
54883;SDS011;40776;52.880;6.016;2024-03-02T10:45:11;3.58;;;0.80;;
54883;SDS011;40776;52.880;6.016;2024-03-02T10:47:37;0.90;;;0.50;;
54883;SDS011;40776;52.880;6.016;2024-03-02T10:50:07;1.88;;;0.38;;
54883;SDS011;40776;52.880;6.016;2024-03-02T10:52:37;3.27;;;0.60;;
54883;SDS011;40776;52.880;6.016;2024-03-02T10:55:04;4.15;;;0.57;;
54883;SDS011;40776;52.880;6.016;2024-03-02T10:58:04;2.65;;;0.60;;
54883;SDS011;40776;52.880;6.016;2024-03-02T11:00:26;1.60;;;1.00;;
54883;SDS011;40776;52.880;6.016;2024-03-02T11:02:58;1.40;;;0.50;;
54883;SDS011;40776;52.880;6.016;2024-03-02T11:05:37;1.45;;;0.60;;
54883;SDS011;40776;52.880;6.016;2024-03-02T11:08:07;3.40;;;0.60;;
54883;SDS011;40776;52.880;6.016;2024-03-02T11:10:34;1.88;;;0.50;;
54883;SDS011;40776;52.880;6.016;2024-03-02T11:13:02;1.10;;;0.30;;
54883;SDS011;40776;52.880;6.016;2024-03-02T11:15:29;1.70;;;0.50;;
54883;SDS011;40776;52.880;6.016;2024-03-02T11:17:56;4.50;;;0.63;;
54883;SDS011;40776;52.880;6.016;2024-03-02T11:20:22;2.00;;;0.80;;
54883;SDS011;40776;52.880;6.016;2024-03-02T11:22:49;1.92;;;0.40;;
54883;SDS011;40776;52.880;6.016;2024-03-02T11:25:26;1.52;;;0.55;;
54883;SDS011;40776;52.880;6.016;2024-03-02T11:33:03;0.82;;;0.40;;
54883;SDS011;40776;52.880;6.016;2024-03-02T11:35:40;1.20;;;0.50;;
54883;SDS011;40776;52.880;6.016;2024-03-02T11:38:13;2.03;;;0.52;;
54883;SDS011;40776;52.880;6.016;2024-03-02T11:40:40;3.78;;;0.60;;
54883;SDS011;40776;52.880;6.016;2024-03-02T11:43:06;0.85;;;0.40;;
54883;SDS011;40776;52.880;6.016;2024-03-02T11:45:36;0.55;;;0.32;;
54883;SDS011;40776;52.880;6.016;2024-03-02T11:48:05;1.90;;;0.52;;
54883;SDS011;40776;52.880;6.016;2024-03-02T11:50:35;3.45;;;0.73;;
54883;SDS011;40776;52.880;6.016;2024-03-02T11:53:03;0.57;;;0.35;;
54883;SDS011;40776;52.880;6.016;2024-03-02T11:55:34;1.90;;;0.50;;
54883;SDS011;40776;52.880;6.016;2024-03-02T11:58:02;1.05;;;0.50;;
54883;SDS011;40776;52.880;6.016;2024-03-02T12:00:28;2.22;;;0.77;;
54883;SDS011;40776;52.880;6.016;2024-03-02T12:05:27;1.85;;;0.50;;
54883;SDS011;40776;52.880;6.016;2024-03-02T12:08:00;0.85;;;0.35;;
54883;SDS011;40776;52.880;6.016;2024-03-02T12:10:26;1.60;;;0.55;;
54883;SDS011;40776;52.880;6.016;2024-03-02T12:12:59;1.20;;;0.70;;
54883;SDS011;40776;52.880;6.016;2024-03-02T12:15:26;1.65;;;0.60;;
54883;SDS011;40776;52.880;6.016;2024-03-02T12:17:53;1.75;;;0.55;;
54883;SDS011;40776;52.880;6.016;2024-03-02T12:20:19;1.70;;;0.70;;
54883;SDS011;40776;52.880;6.016;2024-03-02T12:22:45;4.88;;;1.10;;
54883;SDS011;40776;52.880;6.016;2024-03-02T12:25:12;7.20;;;2.40;;
54883;SDS011;40776;52.880;6.016;2024-03-02T12:27:39;3.55;;;1.00;;
54883;SDS011;40776;52.880;6.016;2024-03-02T12:30:05;3.97;;;1.05;;
54883;SDS011;40776;52.880;6.016;2024-03-02T12:32:35;3.42;;;0.70;;
54883;SDS011;40776;52.880;6.016;2024-03-02T12:35:02;4.35;;;0.90;;
54883;SDS011;40776;52.880;6.016;2024-03-02T12:37:30;4.78;;;1.42;;
54883;SDS011;40776;52.880;6.016;2024-03-02T12:39:56;6.30;;;0.77;;
54883;SDS011;40776;52.880;6.016;2024-03-02T12:42:23;3.13;;;0.63;;
54883;SDS011;40776;52.880;6.016;2024-03-02T12:44:53;2.72;;;0.55;;
54883;SDS011;40776;52.880;6.016;2024-03-02T12:47:20;1.93;;;0.70;;
54883;SDS011;40776;52.880;6.016;2024-03-02T12:49:46;4.15;;;0.75;;
54883;SDS011;40776;52.880;6.016;2024-03-02T12:52:12;1.88;;;0.70;;
54883;SDS011;40776;52.880;6.016;2024-03-02T12:54:39;1.95;;;0.70;;
54883;SDS011;40776;52.880;6.016;2024-03-02T12:57:05;4.85;;;1.38;;
54883;SDS011;40776;52.880;6.016;2024-03-02T12:59:33;1.85;;;0.60;;
54883;SDS011;40776;52.880;6.016;2024-03-02T13:01:59;3.33;;;0.52;;
54883;SDS011;40776;52.880;6.016;2024-03-02T13:04:27;1.70;;;0.60;;
54883;SDS011;40776;52.880;6.016;2024-03-02T13:06:54;2.40;;;0.60;;
54883;SDS011;40776;52.880;6.016;2024-03-02T13:09:22;1.65;;;0.50;;
54883;SDS011;40776;52.880;6.016;2024-03-02T13:11:48;4.32;;;0.55;;
54883;SDS011;40776;52.880;6.016;2024-03-02T13:14:15;4.00;;;0.60;;
54883;SDS011;40776;52.880;6.016;2024-03-02T13:16:41;3.35;;;0.52;;
54883;SDS011;40776;52.880;6.016;2024-03-02T13:19:08;1.80;;;0.50;;
54883;SDS011;40776;52.880;6.016;2024-03-02T13:21:34;2.65;;;0.85;;
54883;SDS011;40776;52.880;6.016;2024-03-02T13:24:00;2.92;;;0.80;;
54883;SDS011;40776;52.880;6.016;2024-03-02T13:26:26;1.23;;;0.57;;
54883;SDS011;40776;52.880;6.016;2024-03-02T13:28:52;1.30;;;0.52;;
54883;SDS011;40776;52.880;6.016;2024-03-02T13:31:18;4.22;;;0.65;;
54883;SDS011;40776;52.880;6.016;2024-03-02T13:33:45;0.70;;;0.30;;
54883;SDS011;40776;52.880;6.016;2024-03-02T13:36:12;1.58;;;0.57;;
54883;SDS011;40776;52.880;6.016;2024-03-02T13:38:38;2.80;;;0.60;;
54883;SDS011;40776;52.880;6.016;2024-03-02T13:41:04;1.48;;;0.57;;
54883;SDS011;40776;52.880;6.016;2024-03-02T13:43:30;3.08;;;0.57;;
54883;SDS011;40776;52.880;6.016;2024-03-02T13:45:57;1.05;;;0.52;;
54883;SDS011;40776;52.880;6.016;2024-03-02T13:48:24;2.03;;;0.60;;
54883;SDS011;40776;52.880;6.016;2024-03-02T13:50:53;2.20;;;0.60;;
54883;SDS011;40776;52.880;6.016;2024-03-02T13:53:19;2.55;;;0.73;;
54883;SDS011;40776;52.880;6.016;2024-03-02T13:55:45;1.13;;;0.47;;
54883;SDS011;40776;52.880;6.016;2024-03-02T13:58:11;1.27;;;0.60;;
54883;SDS011;40776;52.880;6.016;2024-03-02T14:00:38;1.42;;;0.45;;
54883;SDS011;40776;52.880;6.016;2024-03-02T14:03:04;2.85;;;0.60;;
54883;SDS011;40776;52.880;6.016;2024-03-02T14:05:34;1.52;;;0.60;;
54883;SDS011;40776;52.880;6.016;2024-03-02T14:08:00;1.42;;;0.70;;
54883;SDS011;40776;52.880;6.016;2024-03-02T14:10:26;2.45;;;0.98;;
54883;SDS011;40776;52.880;6.016;2024-03-02T14:12:53;2.08;;;0.50;;
54883;SDS011;40776;52.880;6.016;2024-03-02T14:15:20;1.52;;;0.52;;
54883;SDS011;40776;52.880;6.016;2024-03-02T14:17:46;1.42;;;0.60;;
54883;SDS011;40776;52.880;6.016;2024-03-02T14:20:12;1.17;;;0.55;;
54883;SDS011;40776;52.880;6.016;2024-03-02T14:22:38;1.23;;;0.50;;
54883;SDS011;40776;52.880;6.016;2024-03-02T14:25:05;1.73;;;0.63;;
54883;SDS011;40776;52.880;6.016;2024-03-02T14:27:31;0.80;;;0.40;;
54883;SDS011;40776;52.880;6.016;2024-03-02T14:29:58;1.55;;;0.70;;
54883;SDS011;40776;52.880;6.016;2024-03-02T14:32:24;2.25;;;0.77;;
54883;SDS011;40776;52.880;6.016;2024-03-02T14:34:52;1.17;;;0.47;;
54883;SDS011;40776;52.880;6.016;2024-03-02T14:37:18;1.00;;;0.50;;
54883;SDS011;40776;52.880;6.016;2024-03-02T14:39:44;0.90;;;0.40;;
54883;SDS011;40776;52.880;6.016;2024-03-02T14:42:11;1.63;;;0.77;;
54883;SDS011;40776;52.880;6.016;2024-03-02T14:44:37;1.98;;;0.70;;
54883;SDS011;40776;52.880;6.016;2024-03-02T14:47:03;1.52;;;0.60;;
54883;SDS011;40776;52.880;6.016;2024-03-02T14:49:29;1.33;;;0.43;;
54883;SDS011;40776;52.880;6.016;2024-03-02T14:51:56;1.90;;;0.73;;
54883;SDS011;40776;52.880;6.016;2024-03-02T14:54:23;1.42;;;0.65;;
54883;SDS011;40776;52.880;6.016;2024-03-02T14:56:49;0.98;;;0.50;;
54883;SDS011;40776;52.880;6.016;2024-03-02T14:59:15;1.08;;;0.60;;
54883;SDS011;40776;52.880;6.016;2024-03-02T15:01:41;1.23;;;0.77;;